sensor_id;sensor_type;location;lat;lon;timestamp;P1;durP1;ratioP1;P2;durP2;ratioP2
17524;SDS011;40431;52.198;9.902;2023-07-31T00:00:42;2.47;;;1.70;;
17524;SDS011;40431;52.198;9.902;2023-07-31T00:03:08;1.93;;;1.60;;
17524;SDS011;40431;52.198;9.902;2023-07-31T00:05:35;2.87;;;1.60;;
17524;SDS011;40431;52.198;9.902;2023-07-31T00:08:03;4.10;;;1.80;;
17524;SDS011;40431;52.198;9.902;2023-07-31T00:10:29;1.43;;;1.33;;
17524;SDS011;40431;52.198;9.902;2023-07-31T00:12:56;3.57;;;1.67;;
17524;SDS011;40431;52.198;9.902;2023-07-31T00:15:22;3.47;;;1.57;;
17524;SDS011;40431;52.198;9.902;2023-07-31T00:17:48;2.60;;;1.80;;
17524;SDS011;40431;52.198;9.902;2023-07-31T00:20:15;1.77;;;1.53;;
17524;SDS011;40431;52.198;9.902;2023-07-31T00:22:41;1.43;;;1.20;;
17524;SDS011;40431;52.198;9.902;2023-07-31T00:25:09;3.03;;;1.63;;
17524;SDS011;40431;52.198;9.902;2023-07-31T00:27:35;2.47;;;1.40;;
17524;SDS011;40431;52.198;9.902;2023-07-31T00:30:02;1.60;;;1.40;;
17524;SDS011;40431;52.198;9.902;2023-07-31T00:32:29;1.73;;;1.10;;
17524;SDS011;40431;52.198;9.902;2023-07-31T00:34:55;1.60;;;1.30;;
17524;SDS011;40431;52.198;9.902;2023-07-31T00:37:22;3.13;;;1.43;;
17524;SDS011;40431;52.198;9.902;2023-07-31T00:39:48;2.40;;;1.50;;
17524;SDS011;40431;52.198;9.902;2023-07-31T00:42:16;2.10;;;1.27;;
17524;SDS011;40431;52.198;9.902;2023-07-31T00:44:42;2.30;;;1.13;;
17524;SDS011;40431;52.198;9.902;2023-07-31T00:47:09;1.70;;;1.30;;
17524;SDS011;40431;52.198;9.902;2023-07-31T00:49:35;2.33;;;1.40;;
17524;SDS011;40431;52.198;9.902;2023-07-31T00:52:02;1.53;;;1.20;;
17524;SDS011;40431;52.198;9.902;2023-07-31T00:54:29;1.70;;;1.60;;
17524;SDS011;40431;52.198;9.902;2023-07-31T00:56:55;1.93;;;1.23;;
17524;SDS011;40431;52.198;9.902;2023-07-31T00:59:24;2.27;;;1.40;;
17524;SDS011;40431;52.198;9.902;2023-07-31T01:01:50;1.50;;;1.40;;
17524;SDS011;40431;52.198;9.902;2023-07-31T01:04:17;1.43;;;1.30;;
17524;SDS011;40431;52.198;9.902;2023-07-31T01:06:46;2.13;;;1.73;;
17524;SDS011;40431;52.198;9.902;2023-07-31T01:09:20;1.77;;;1.47;;
17524;SDS011;40431;52.198;9.902;2023-07-31T01:11:56;1.70;;;1.23;;
17524;SDS011;40431;52.198;9.902;2023-07-31T01:14:27;2.20;;;1.27;;
17524;SDS011;40431;52.198;9.902;2023-07-31T01:16:54;1.70;;;1.40;;
17524;SDS011;40431;52.198;9.902;2023-07-31T01:19:21;2.07;;;1.30;;
17524;SDS011;40431;52.198;9.902;2023-07-31T01:21:56;1.87;;;1.27;;
17524;SDS011;40431;52.198;9.902;2023-07-31T01:24:36;3.97;;;1.60;;
17524;SDS011;40431;52.198;9.902;2023-07-31T01:27:20;1.20;;;1.00;;
17524;SDS011;40431;52.198;9.902;2023-07-31T01:29:51;2.17;;;1.20;;
17524;SDS011;40431;52.198;9.902;2023-07-31T01:32:22;1.27;;;0.83;;
17524;SDS011;40431;52.198;9.902;2023-07-31T01:34:48;1.60;;;0.90;;
17524;SDS011;40431;52.198;9.902;2023-07-31T01:37:16;1.43;;;1.00;;
17524;SDS011;40431;52.198;9.902;2023-07-31T01:39:43;1.43;;;1.10;;
17524;SDS011;40431;52.198;9.902;2023-07-31T01:42:09;1.60;;;1.00;;
17524;SDS011;40431;52.198;9.902;2023-07-31T01:44:37;1.33;;;0.83;;
17524;SDS011;40431;52.198;9.902;2023-07-31T01:47:03;0.77;;;0.77;;
17524;SDS011;40431;52.198;9.902;2023-07-31T01:49:30;0.90;;;0.90;;
17524;SDS011;40431;52.198;9.902;2023-07-31T01:51:57;2.20;;;1.10;;
17524;SDS011;40431;52.198;9.902;2023-07-31T01:54:23;0.90;;;0.90;;
17524;SDS011;40431;52.198;9.902;2023-07-31T01:56:49;1.10;;;1.10;;
17524;SDS011;40431;52.198;9.902;2023-07-31T01:59:16;0.90;;;0.90;;
17524;SDS011;40431;52.198;9.902;2023-07-31T02:01:43;1.47;;;1.10;;
17524;SDS011;40431;52.198;9.902;2023-07-31T02:04:10;1.30;;;1.20;;
17524;SDS011;40431;52.198;9.902;2023-07-31T02:06:36;1.87;;;0.90;;
17524;SDS011;40431;52.198;9.902;2023-07-31T02:09:03;0.70;;;0.70;;
17524;SDS011;40431;52.198;9.902;2023-07-31T02:11:29;0.97;;;0.80;;
17524;SDS011;40431;52.198;9.902;2023-07-31T02:13:55;1.40;;;1.20;;
17524;SDS011;40431;52.198;9.902;2023-07-31T02:16:22;1.20;;;0.90;;
17524;SDS011;40431;52.198;9.902;2023-07-31T02:18:49;1.30;;;1.10;;
17524;SDS011;40431;52.198;9.902;2023-07-31T02:21:16;1.33;;;0.97;;
17524;SDS011;40431;52.198;9.902;2023-07-31T02:23:42;1.00;;;1.00;;
17524;SDS011;40431;52.198;9.902;2023-07-31T02:26:08;1.77;;;1.10;;
17524;SDS011;40431;52.198;9.902;2023-07-31T02:28:35;1.43;;;0.90;;
17524;SDS011;40431;52.198;9.902;2023-07-31T02:31:02;1.33;;;1.23;;
17524;SDS011;40431;52.198;9.902;2023-07-31T02:33:28;1.47;;;1.00;;
17524;SDS011;40431;52.198;9.902;2023-07-31T02:35:56;0.70;;;0.70;;
17524;SDS011;40431;52.198;9.902;2023-07-31T02:38:22;1.10;;;0.97;;
17524;SDS011;40431;52.198;9.902;2023-07-31T02:40:49;1.33;;;1.00;;
17524;SDS011;40431;52.198;9.902;2023-07-31T02:43:15;1.10;;;1.00;;
17524;SDS011;40431;52.198;9.902;2023-07-31T02:45:42;1.00;;;0.93;;
17524;SDS011;40431;52.198;9.902;2023-07-31T02:48:08;0.90;;;0.90;;
17524;SDS011;40431;52.198;9.902;2023-07-31T02:50:34;1.23;;;0.83;;
17524;SDS011;40431;52.198;9.902;2023-07-31T02:53:02;1.00;;;1.00;;
17524;SDS011;40431;52.198;9.902;2023-07-31T02:55:29;1.57;;;1.03;;
17524;SDS011;40431;52.198;9.902;2023-07-31T02:57:55;0.90;;;0.90;;
17524;SDS011;40431;52.198;9.902;2023-07-31T03:00:23;0.97;;;0.97;;
17524;SDS011;40431;52.198;9.902;2023-07-31T03:02:49;1.00;;;1.00;;
17524;SDS011;40431;52.198;9.902;2023-07-31T03:05:16;0.90;;;0.83;;
17524;SDS011;40431;52.198;9.902;2023-07-31T03:07:42;0.80;;;0.80;;
17524;SDS011;40431;52.198;9.902;2023-07-31T03:10:10;0.80;;;0.70;;
17524;SDS011;40431;52.198;9.902;2023-07-31T03:12:36;0.93;;;0.80;;
17524;SDS011;40431;52.198;9.902;2023-07-31T03:15:03;1.33;;;0.90;;
17524;SDS011;40431;52.198;9.902;2023-07-31T03:17:30;0.90;;;0.90;;
17524;SDS011;40431;52.198;9.902;2023-07-31T03:19:56;1.00;;;1.00;;
17524;SDS011;40431;52.198;9.902;2023-07-31T03:22:22;1.53;;;1.00;;
17524;SDS011;40431;52.198;9.902;2023-07-31T03:24:49;1.03;;;1.03;;
17524;SDS011;40431;52.198;9.902;2023-07-31T03:27:16;1.40;;;0.90;;
17524;SDS011;40431;52.198;9.902;2023-07-31T03:29:44;0.70;;;0.70;;
17524;SDS011;40431;52.198;9.902;2023-07-31T03:32:10;1.10;;;1.00;;
17524;SDS011;40431;52.198;9.902;2023-07-31T03:34:37;0.90;;;0.90;;
17524;SDS011;40431;52.198;9.902;2023-07-31T03:37:03;0.90;;;0.90;;
17524;SDS011;40431;52.198;9.902;2023-07-31T03:39:30;1.00;;;1.00;;
17524;SDS011;40431;52.198;9.902;2023-07-31T03:41:57;0.97;;;0.97;;
17524;SDS011;40431;52.198;9.902;2023-07-31T03:44:24;1.03;;;1.03;;
17524;SDS011;40431;52.198;9.902;2023-07-31T03:46:51;0.90;;;0.90;;
17524;SDS011;40431;52.198;9.902;2023-07-31T03:49:17;1.20;;;1.10;;
17524;SDS011;40431;52.198;9.902;2023-07-31T03:51:44;1.27;;;1.17;;
17524;SDS011;40431;52.198;9.902;2023-07-31T03:54:10;1.20;;;1.10;;
17524;SDS011;40431;52.198;9.902;2023-07-31T03:56:38;2.30;;;1.20;;
17524;SDS011;40431;52.198;9.902;2023-07-31T03:59:04;1.40;;;1.20;;
17524;SDS011;40431;52.198;9.902;2023-07-31T04:01:32;0.87;;;0.87;;
17524;SDS011;40431;52.198;9.902;2023-07-31T04:03:58;1.10;;;1.00;;
17524;SDS011;40431;52.198;9.902;2023-07-31T04:06:25;1.80;;;1.10;;
17524;SDS011;40431;52.198;9.902;2023-07-31T04:08:51;1.90;;;1.50;;
17524;SDS011;40431;52.198;9.902;2023-07-31T04:11:17;1.10;;;1.10;;
17524;SDS011;40431;52.198;9.902;2023-07-31T04:13:44;1.10;;;1.00;;
17524;SDS011;40431;52.198;9.902;2023-07-31T04:16:10;1.70;;;1.13;;
17524;SDS011;40431;52.198;9.902;2023-07-31T04:18:38;1.10;;;1.00;;
17524;SDS011;40431;52.198;9.902;2023-07-31T04:21:05;1.47;;;1.20;;
17524;SDS011;40431;52.198;9.902;2023-07-31T04:23:31;1.73;;;0.93;;
17524;SDS011;40431;52.198;9.902;2023-07-31T04:25:57;1.23;;;1.10;;
17524;SDS011;40431;52.198;9.902;2023-07-31T04:28:24;1.20;;;1.10;;
17524;SDS011;40431;52.198;9.902;2023-07-31T04:30:51;1.17;;;1.07;;
17524;SDS011;40431;52.198;9.902;2023-07-31T04:33:17;0.90;;;0.90;;
17524;SDS011;40431;52.198;9.902;2023-07-31T04:35:49;0.87;;;0.80;;
17524;SDS011;40431;52.198;9.902;2023-07-31T04:38:17;1.43;;;1.07;;
17524;SDS011;40431;52.198;9.902;2023-07-31T04:40:44;0.77;;;0.77;;
17524;SDS011;40431;52.198;9.902;2023-07-31T04:43:10;1.10;;;0.90;;
17524;SDS011;40431;52.198;9.902;2023-07-31T04:45:37;1.33;;;0.93;;
17524;SDS011;40431;52.198;9.902;2023-07-31T04:48:03;0.80;;;0.80;;
17524;SDS011;40431;52.198;9.902;2023-07-31T04:50:30;1.63;;;0.97;;
17524;SDS011;40431;52.198;9.902;2023-07-31T04:52:58;0.97;;;0.97;;
17524;SDS011;40431;52.198;9.902;2023-07-31T04:55:24;0.90;;;0.90;;
17524;SDS011;40431;52.198;9.902;2023-07-31T04:57:50;0.80;;;0.80;;
17524;SDS011;40431;52.198;9.902;2023-07-31T05:00:17;1.77;;;1.00;;
17524;SDS011;40431;52.198;9.902;2023-07-31T05:02:43;1.93;;;1.60;;
17524;SDS011;40431;52.198;9.902;2023-07-31T05:05:09;1.60;;;1.50;;
17524;SDS011;40431;52.198;9.902;2023-07-31T05:07:36;2.07;;;1.87;;
17524;SDS011;40431;52.198;9.902;2023-07-31T05:10:04;2.40;;;2.30;;
17524;SDS011;40431;52.198;9.902;2023-07-31T05:12:31;2.53;;;2.33;;
17524;SDS011;40431;52.198;9.902;2023-07-31T05:14:57;2.70;;;2.30;;
17524;SDS011;40431;52.198;9.902;2023-07-31T05:17:24;3.33;;;3.00;;
17524;SDS011;40431;52.198;9.902;2023-07-31T05:19:50;3.40;;;3.10;;
17524;SDS011;40431;52.198;9.902;2023-07-31T05:22:16;4.43;;;3.90;;
17524;SDS011;40431;52.198;9.902;2023-07-31T05:24:43;3.73;;;3.43;;
17524;SDS011;40431;52.198;9.902;2023-07-31T05:27:11;4.33;;;3.93;;
17524;SDS011;40431;52.198;9.902;2023-07-31T05:29:40;5.93;;;5.43;;
17524;SDS011;40431;52.198;9.902;2023-07-31T05:32:06;6.13;;;5.33;;
17524;SDS011;40431;52.198;9.902;2023-07-31T05:34:33;6.20;;;5.60;;
17524;SDS011;40431;52.198;9.902;2023-07-31T05:37:00;6.00;;;5.50;;
17524;SDS011;40431;52.198;9.902;2023-07-31T05:39:26;10.37;;;6.73;;
17524;SDS011;40431;52.198;9.902;2023-07-31T05:41:52;7.30;;;6.70;;
17524;SDS011;40431;52.198;9.902;2023-07-31T05:44:20;7.83;;;7.00;;
17524;SDS011;40431;52.198;9.902;2023-07-31T05:46:47;6.90;;;6.30;;
17524;SDS011;40431;52.198;9.902;2023-07-31T05:49:13;6.90;;;6.30;;
17524;SDS011;40431;52.198;9.902;2023-07-31T05:51:39;7.17;;;6.57;;
17524;SDS011;40431;52.198;9.902;2023-07-31T05:54:06;7.63;;;6.53;;
17524;SDS011;40431;52.198;9.902;2023-07-31T05:56:32;6.97;;;6.27;;
17524;SDS011;40431;52.198;9.902;2023-07-31T05:58:59;7.47;;;6.77;;
17524;SDS011;40431;52.198;9.902;2023-07-31T06:01:27;6.63;;;6.00;;
17524;SDS011;40431;52.198;9.902;2023-07-31T06:03:53;6.20;;;5.60;;
17524;SDS011;40431;52.198;9.902;2023-07-31T06:06:19;5.73;;;5.13;;
17524;SDS011;40431;52.198;9.902;2023-07-31T06:08:46;5.13;;;4.70;;
17524;SDS011;40431;52.198;9.902;2023-07-31T06:11:12;11.07;;;4.43;;
17524;SDS011;40431;52.198;9.902;2023-07-31T06:13:39;3.80;;;3.50;;
17524;SDS011;40431;52.198;9.902;2023-07-31T06:16:05;4.70;;;4.30;;
17524;SDS011;40431;52.198;9.902;2023-07-31T06:18:33;4.83;;;4.40;;
17524;SDS011;40431;52.198;9.902;2023-07-31T06:20:59;5.93;;;4.87;;
17524;SDS011;40431;52.198;9.902;2023-07-31T06:23:26;5.70;;;5.20;;
17524;SDS011;40431;52.198;9.902;2023-07-31T06:25:52;6.30;;;5.37;;
17524;SDS011;40431;52.198;9.902;2023-07-31T06:28:18;6.13;;;5.53;;
17524;SDS011;40431;52.198;9.902;2023-07-31T06:30:45;6.27;;;5.73;;
17524;SDS011;40431;52.198;9.902;2023-07-31T06:33:12;6.70;;;6.13;;
17524;SDS011;40431;52.198;9.902;2023-07-31T06:35:40;10.83;;;6.93;;
17524;SDS011;40431;52.198;9.902;2023-07-31T06:38:06;7.60;;;6.87;;
17524;SDS011;40431;52.198;9.902;2023-07-31T06:40:32;8.77;;;6.90;;
17524;SDS011;40431;52.198;9.902;2023-07-31T06:42:59;8.07;;;7.37;;
17524;SDS011;40431;52.198;9.902;2023-07-31T06:45:31;8.07;;;7.27;;
17524;SDS011;40431;52.198;9.902;2023-07-31T06:47:57;9.07;;;8.23;;
17524;SDS011;40431;52.198;9.902;2023-07-31T06:50:26;9.67;;;8.37;;
17524;SDS011;40431;52.198;9.902;2023-07-31T06:52:54;9.53;;;8.33;;
17524;SDS011;40431;52.198;9.902;2023-07-31T06:55:21;10.50;;;9.50;;
17524;SDS011;40431;52.198;9.902;2023-07-31T06:57:48;11.07;;;9.37;;
17524;SDS011;40431;52.198;9.902;2023-07-31T07:00:16;9.43;;;8.43;;
17524;SDS011;40431;52.198;9.902;2023-07-31T07:02:42;13.93;;;9.73;;
17524;SDS011;40431;52.198;9.902;2023-07-31T07:05:09;10.27;;;9.40;;
17524;SDS011;40431;52.198;9.902;2023-07-31T07:07:36;10.13;;;9.03;;
17524;SDS011;40431;52.198;9.902;2023-07-31T07:10:04;10.83;;;9.83;;
17524;SDS011;40431;52.198;9.902;2023-07-31T07:12:32;9.37;;;8.50;;
17524;SDS011;40431;52.198;9.902;2023-07-31T07:14:59;10.50;;;9.37;;
17524;SDS011;40431;52.198;9.902;2023-07-31T07:17:25;12.83;;;9.37;;
17524;SDS011;40431;52.198;9.902;2023-07-31T07:19:52;9.50;;;8.53;;
17524;SDS011;40431;52.198;9.902;2023-07-31T07:22:18;10.33;;;8.40;;
17524;SDS011;40431;52.198;9.902;2023-07-31T07:24:44;8.00;;;7.20;;
17524;SDS011;40431;52.198;9.902;2023-07-31T07:27:12;8.63;;;7.73;;
17524;SDS011;40431;52.198;9.902;2023-07-31T07:29:39;8.27;;;7.57;;
17524;SDS011;40431;52.198;9.902;2023-07-31T07:32:06;9.67;;;8.60;;
17524;SDS011;40431;52.198;9.902;2023-07-31T07:34:33;7.97;;;7.17;;
17524;SDS011;40431;52.198;9.902;2023-07-31T07:36:59;8.50;;;7.70;;
17524;SDS011;40431;52.198;9.902;2023-07-31T07:39:26;8.50;;;7.77;;
17524;SDS011;40431;52.198;9.902;2023-07-31T07:41:52;11.37;;;6.57;;
17524;SDS011;40431;52.198;9.902;2023-07-31T07:44:20;8.33;;;6.83;;
17524;SDS011;40431;52.198;9.902;2023-07-31T07:46:47;7.90;;;7.17;;
17524;SDS011;40431;52.198;9.902;2023-07-31T07:49:13;9.30;;;7.33;;
17524;SDS011;40431;52.198;9.902;2023-07-31T07:51:39;8.17;;;6.90;;
17524;SDS011;40431;52.198;9.902;2023-07-31T07:54:06;11.20;;;7.30;;
17524;SDS011;40431;52.198;9.902;2023-07-31T07:56:32;7.30;;;6.33;;
17524;SDS011;40431;52.198;9.902;2023-07-31T07:59:01;7.13;;;6.27;;
17524;SDS011;40431;52.198;9.902;2023-07-31T08:01:28;7.17;;;6.30;;
17524;SDS011;40431;52.198;9.902;2023-07-31T08:03:55;6.83;;;6.13;;
17524;SDS011;40431;52.198;9.902;2023-07-31T08:06:21;9.40;;;7.23;;
17524;SDS011;40431;52.198;9.902;2023-07-31T08:08:48;7.80;;;6.60;;
17524;SDS011;40431;52.198;9.902;2023-07-31T08:11:14;6.93;;;6.23;;
17524;SDS011;40431;52.198;9.902;2023-07-31T08:13:40;8.27;;;6.30;;
17524;SDS011;40431;52.198;9.902;2023-07-31T08:16:07;11.90;;;7.30;;
17524;SDS011;40431;52.198;9.902;2023-07-31T08:18:35;7.73;;;6.70;;
17524;SDS011;40431;52.198;9.902;2023-07-31T08:21:01;9.67;;;6.73;;
17524;SDS011;40431;52.198;9.902;2023-07-31T08:23:28;7.33;;;6.63;;
17524;SDS011;40431;52.198;9.902;2023-07-31T08:25:54;9.80;;;6.47;;
17524;SDS011;40431;52.198;9.902;2023-07-31T08:28:20;8.43;;;7.23;;
17524;SDS011;40431;52.198;9.902;2023-07-31T08:30:47;10.63;;;6.77;;
17524;SDS011;40431;52.198;9.902;2023-07-31T08:33:15;7.87;;;7.07;;
17524;SDS011;40431;52.198;9.902;2023-07-31T08:35:43;8.10;;;7.10;;
17524;SDS011;40431;52.198;9.902;2023-07-31T08:38:09;7.97;;;6.63;;
17524;SDS011;40431;52.198;9.902;2023-07-31T08:40:36;7.43;;;5.47;;
17524;SDS011;40431;52.198;9.902;2023-07-31T08:43:02;9.87;;;5.80;;
17524;SDS011;40431;52.198;9.902;2023-07-31T08:45:29;7.77;;;6.10;;
17524;SDS011;40431;52.198;9.902;2023-07-31T08:47:56;7.20;;;5.37;;
17524;SDS011;40431;52.198;9.902;2023-07-31T08:50:23;6.33;;;5.17;;
17524;SDS011;40431;52.198;9.902;2023-07-31T08:52:51;5.53;;;4.73;;
17524;SDS011;40431;52.198;9.902;2023-07-31T08:55:18;5.83;;;5.40;;
17524;SDS011;40431;52.198;9.902;2023-07-31T08:57:48;6.17;;;5.17;;
17524;SDS011;40431;52.198;9.902;2023-07-31T09:00:16;4.87;;;4.47;;
17524;SDS011;40431;52.198;9.902;2023-07-31T09:02:44;4.80;;;4.40;;
17524;SDS011;40431;52.198;9.902;2023-07-31T09:05:12;4.77;;;4.03;;
17524;SDS011;40431;52.198;9.902;2023-07-31T09:07:38;4.17;;;3.87;;
17524;SDS011;40431;52.198;9.902;2023-07-31T09:10:08;6.23;;;4.57;;
17524;SDS011;40431;52.198;9.902;2023-07-31T09:12:35;4.50;;;3.03;;
17524;SDS011;40431;52.198;9.902;2023-07-31T09:15:02;4.63;;;3.90;;
17524;SDS011;40431;52.198;9.902;2023-07-31T09:17:29;4.10;;;3.30;;
17524;SDS011;40431;52.198;9.902;2023-07-31T09:19:56;4.03;;;3.10;;
17524;SDS011;40431;52.198;9.902;2023-07-31T09:22:31;3.17;;;2.87;;
17524;SDS011;40431;52.198;9.902;2023-07-31T09:25:02;2.70;;;2.50;;
17524;SDS011;40431;52.198;9.902;2023-07-31T09:27:46;2.50;;;2.30;;
17524;SDS011;40431;52.198;9.902;2023-07-31T09:30:14;2.60;;;2.40;;
17524;SDS011;40431;52.198;9.902;2023-07-31T09:32:40;2.50;;;2.30;;
17524;SDS011;40431;52.198;9.902;2023-07-31T09:35:13;3.07;;;2.60;;
17524;SDS011;40431;52.198;9.902;2023-07-31T09:37:40;3.03;;;2.43;;
17524;SDS011;40431;52.198;9.902;2023-07-31T09:40:06;2.63;;;2.30;;
17524;SDS011;40431;52.198;9.902;2023-07-31T09:42:35;3.13;;;2.80;;
17524;SDS011;40431;52.198;9.902;2023-07-31T09:45:08;3.10;;;2.80;;
17524;SDS011;40431;52.198;9.902;2023-07-31T09:47:35;2.60;;;2.40;;
17524;SDS011;40431;52.198;9.902;2023-07-31T09:50:01;4.03;;;3.30;;
17524;SDS011;40431;52.198;9.902;2023-07-31T09:52:33;2.90;;;2.70;;
17524;SDS011;40431;52.198;9.902;2023-07-31T09:54:59;3.43;;;3.13;;
17524;SDS011;40431;52.198;9.902;2023-07-31T09:57:25;2.80;;;2.60;;
17524;SDS011;40431;52.198;9.902;2023-07-31T09:59:55;3.73;;;3.07;;
17524;SDS011;40431;52.198;9.902;2023-07-31T10:02:22;2.80;;;2.60;;
17524;SDS011;40431;52.198;9.902;2023-07-31T10:04:49;3.40;;;3.10;;
17524;SDS011;40431;52.198;9.902;2023-07-31T10:07:16;3.17;;;2.90;;
17524;SDS011;40431;52.198;9.902;2023-07-31T10:09:44;3.57;;;3.27;;
17524;SDS011;40431;52.198;9.902;2023-07-31T10:12:12;3.10;;;2.80;;
17524;SDS011;40431;52.198;9.902;2023-07-31T10:14:43;3.33;;;3.03;;
17524;SDS011;40431;52.198;9.902;2023-07-31T10:17:12;4.60;;;3.20;;
17524;SDS011;40431;52.198;9.902;2023-07-31T10:19:40;3.37;;;3.17;;
17524;SDS011;40431;52.198;9.902;2023-07-31T10:22:07;3.00;;;2.80;;
17524;SDS011;40431;52.198;9.902;2023-07-31T10:24:34;2.90;;;2.70;;
17524;SDS011;40431;52.198;9.902;2023-07-31T10:27:03;2.90;;;2.70;;
17524;SDS011;40431;52.198;9.902;2023-07-31T10:29:30;3.20;;;2.90;;
17524;SDS011;40431;52.198;9.902;2023-07-31T10:31:57;3.33;;;3.03;;
17524;SDS011;40431;52.198;9.902;2023-07-31T10:34:26;3.10;;;2.90;;
17524;SDS011;40431;52.198;9.902;2023-07-31T10:39:54;3.47;;;2.73;;
17524;SDS011;40431;52.198;9.902;2023-07-31T10:42:26;3.43;;;3.20;;
17524;SDS011;40431;52.198;9.902;2023-07-31T10:44:56;3.03;;;2.77;;
17524;SDS011;40431;52.198;9.902;2023-07-31T10:47:23;3.40;;;3.20;;
17524;SDS011;40431;52.198;9.902;2023-07-31T10:49:51;3.80;;;2.87;;
17524;SDS011;40431;52.198;9.902;2023-07-31T10:52:19;3.20;;;2.90;;
17524;SDS011;40431;52.198;9.902;2023-07-31T10:54:48;3.03;;;2.57;;
17524;SDS011;40431;52.198;9.902;2023-07-31T10:57:24;3.03;;;2.60;;
17524;SDS011;40431;52.198;9.902;2023-07-31T10:59:50;5.07;;;3.20;;
17524;SDS011;40431;52.198;9.902;2023-07-31T11:02:26;3.33;;;3.03;;
17524;SDS011;40431;52.198;9.902;2023-07-31T11:05:07;2.47;;;2.27;;
17524;SDS011;40431;52.198;9.902;2023-07-31T11:07:46;6.63;;;2.50;;
17524;SDS011;40431;52.198;9.902;2023-07-31T11:10:15;3.20;;;2.40;;
17524;SDS011;40431;52.198;9.902;2023-07-31T11:12:42;2.50;;;2.30;;
17524;SDS011;40431;52.198;9.902;2023-07-31T11:15:09;2.43;;;2.30;;
17524;SDS011;40431;52.198;9.902;2023-07-31T11:17:37;3.20;;;2.60;;
17524;SDS011;40431;52.198;9.902;2023-07-31T11:20:05;2.80;;;2.60;;
17524;SDS011;40431;52.198;9.902;2023-07-31T11:22:34;3.60;;;2.43;;
17524;SDS011;40431;52.198;9.902;2023-07-31T11:25:00;3.73;;;2.50;;
17524;SDS011;40431;52.198;9.902;2023-07-31T11:27:27;2.50;;;2.30;;
17524;SDS011;40431;52.198;9.902;2023-07-31T11:29:59;2.43;;;2.23;;
17524;SDS011;40431;52.198;9.902;2023-07-31T11:32:26;2.60;;;2.40;;
17524;SDS011;40431;52.198;9.902;2023-07-31T11:34:52;3.80;;;2.33;;
17524;SDS011;40431;52.198;9.902;2023-07-31T11:37:20;2.23;;;2.00;;
17524;SDS011;40431;52.198;9.902;2023-07-31T11:39:58;2.33;;;2.13;;
17524;SDS011;40431;52.198;9.902;2023-07-31T11:42:25;2.27;;;2.07;;
17524;SDS011;40431;52.198;9.902;2023-07-31T11:44:51;3.07;;;2.07;;
17524;SDS011;40431;52.198;9.902;2023-07-31T11:47:17;2.33;;;1.80;;
17524;SDS011;40431;52.198;9.902;2023-07-31T11:49:44;2.67;;;2.00;;
17524;SDS011;40431;52.198;9.902;2023-07-31T11:52:10;2.20;;;2.00;;
17524;SDS011;40431;52.198;9.902;2023-07-31T11:54:39;2.60;;;2.00;;
17524;SDS011;40431;52.198;9.902;2023-07-31T11:57:06;2.17;;;1.90;;
17524;SDS011;40431;52.198;9.902;2023-07-31T11:59:33;1.80;;;1.70;;
17524;SDS011;40431;52.198;9.902;2023-07-31T12:02:00;1.60;;;1.50;;
17524;SDS011;40431;52.198;9.902;2023-07-31T12:04:27;2.30;;;1.83;;
17524;SDS011;40431;52.198;9.902;2023-07-31T12:06:53;2.77;;;2.03;;
17524;SDS011;40431;52.198;9.902;2023-07-31T12:09:20;2.70;;;2.27;;
17524;SDS011;40431;52.198;9.902;2023-07-31T12:11:47;2.20;;;2.00;;
17524;SDS011;40431;52.198;9.902;2023-07-31T12:14:20;1.77;;;1.67;;
17524;SDS011;40431;52.198;9.902;2023-07-31T12:16:48;2.53;;;2.33;;
17524;SDS011;40431;52.198;9.902;2023-07-31T12:19:20;2.97;;;2.20;;
17524;SDS011;40431;52.198;9.902;2023-07-31T12:21:47;2.43;;;2.23;;
17524;SDS011;40431;52.198;9.902;2023-07-31T12:24:13;2.10;;;1.63;;
17524;SDS011;40431;52.198;9.902;2023-07-31T12:26:40;2.57;;;2.10;;
17524;SDS011;40431;52.198;9.902;2023-07-31T12:29:07;2.50;;;2.30;;
17524;SDS011;40431;52.198;9.902;2023-07-31T12:31:34;2.50;;;2.30;;
17524;SDS011;40431;52.198;9.902;2023-07-31T12:34:01;4.33;;;1.90;;
17524;SDS011;40431;52.198;9.902;2023-07-31T12:36:28;1.97;;;1.60;;
17524;SDS011;40431;52.198;9.902;2023-07-31T12:38:55;1.87;;;1.77;;
17524;SDS011;40431;52.198;9.902;2023-07-31T12:41:23;2.27;;;1.77;;
17524;SDS011;40431;52.198;9.902;2023-07-31T12:43:50;1.50;;;1.40;;
17524;SDS011;40431;52.198;9.902;2023-07-31T12:46:18;2.33;;;1.70;;
17524;SDS011;40431;52.198;9.902;2023-07-31T12:48:44;1.40;;;1.30;;
17524;SDS011;40431;52.198;9.902;2023-07-31T12:51:10;1.63;;;1.53;;
17524;SDS011;40431;52.198;9.902;2023-07-31T12:53:37;2.50;;;1.67;;
17524;SDS011;40431;52.198;9.902;2023-07-31T12:56:03;1.40;;;1.30;;
17524;SDS011;40431;52.198;9.902;2023-07-31T12:58:30;1.53;;;1.20;;
17524;SDS011;40431;52.198;9.902;2023-07-31T13:00:56;1.27;;;1.17;;
17524;SDS011;40431;52.198;9.902;2023-07-31T13:03:24;1.40;;;1.30;;
17524;SDS011;40431;52.198;9.902;2023-07-31T13:05:51;1.17;;;1.07;;
17524;SDS011;40431;52.198;9.902;2023-07-31T13:08:18;1.03;;;0.97;;
17524;SDS011;40431;52.198;9.902;2023-07-31T13:10:44;1.73;;;1.10;;
17524;SDS011;40431;52.198;9.902;2023-07-31T13:13:11;0.90;;;0.90;;
17524;SDS011;40431;52.198;9.902;2023-07-31T13:15:37;0.90;;;0.90;;
17524;SDS011;40431;52.198;9.902;2023-07-31T13:18:03;2.23;;;1.07;;
17524;SDS011;40431;52.198;9.902;2023-07-31T13:20:31;1.87;;;1.00;;
17524;SDS011;40431;52.198;9.902;2023-07-31T13:22:58;1.07;;;0.90;;
17524;SDS011;40431;52.198;9.902;2023-07-31T13:25:24;0.83;;;0.83;;
17524;SDS011;40431;52.198;9.902;2023-07-31T13:27:50;0.70;;;0.70;;
17524;SDS011;40431;52.198;9.902;2023-07-31T13:30:17;0.83;;;0.80;;
17524;SDS011;40431;52.198;9.902;2023-07-31T13:32:43;0.80;;;0.80;;
17524;SDS011;40431;52.198;9.902;2023-07-31T13:35:09;0.73;;;0.73;;
17524;SDS011;40431;52.198;9.902;2023-07-31T13:37:38;1.00;;;0.90;;
17524;SDS011;40431;52.198;9.902;2023-07-31T13:40:05;0.80;;;0.80;;
17524;SDS011;40431;52.198;9.902;2023-07-31T13:42:32;0.90;;;0.80;;
17524;SDS011;40431;52.198;9.902;2023-07-31T13:44:58;1.07;;;0.80;;
17524;SDS011;40431;52.198;9.902;2023-07-31T13:47:25;1.03;;;0.70;;
17524;SDS011;40431;52.198;9.902;2023-07-31T13:49:51;1.23;;;0.93;;
17524;SDS011;40431;52.198;9.902;2023-07-31T13:52:18;0.60;;;0.60;;
17524;SDS011;40431;52.198;9.902;2023-07-31T13:54:45;0.67;;;0.67;;
17524;SDS011;40431;52.198;9.902;2023-07-31T13:57:12;0.80;;;0.80;;
17524;SDS011;40431;52.198;9.902;2023-07-31T13:59:38;0.77;;;0.70;;
17524;SDS011;40431;52.198;9.902;2023-07-31T14:02:04;0.80;;;0.80;;
17524;SDS011;40431;52.198;9.902;2023-07-31T14:04:31;0.90;;;0.90;;
17524;SDS011;40431;52.198;9.902;2023-07-31T14:06:58;0.70;;;0.70;;
17524;SDS011;40431;52.198;9.902;2023-07-31T14:09:25;0.70;;;0.70;;
17524;SDS011;40431;52.198;9.902;2023-07-31T14:11:53;0.90;;;0.90;;
17524;SDS011;40431;52.198;9.902;2023-07-31T14:14:19;0.80;;;0.80;;
17524;SDS011;40431;52.198;9.902;2023-07-31T14:16:45;1.83;;;1.73;;
17524;SDS011;40431;52.198;9.902;2023-07-31T14:19:12;1.23;;;0.87;;
17524;SDS011;40431;52.198;9.902;2023-07-31T14:21:38;1.00;;;0.90;;
17524;SDS011;40431;52.198;9.902;2023-07-31T14:24:05;0.80;;;0.80;;
17524;SDS011;40431;52.198;9.902;2023-07-31T14:26:31;0.80;;;0.80;;
17524;SDS011;40431;52.198;9.902;2023-07-31T14:28:59;0.80;;;0.80;;
17524;SDS011;40431;52.198;9.902;2023-07-31T14:31:25;0.73;;;0.73;;
17524;SDS011;40431;52.198;9.902;2023-07-31T14:33:52;0.87;;;0.87;;
17524;SDS011;40431;52.198;9.902;2023-07-31T14:36:18;0.83;;;0.73;;
17524;SDS011;40431;52.198;9.902;2023-07-31T14:38:44;1.80;;;0.80;;
17524;SDS011;40431;52.198;9.902;2023-07-31T14:41:11;0.80;;;0.80;;
17524;SDS011;40431;52.198;9.902;2023-07-31T14:43:37;0.70;;;0.70;;
17524;SDS011;40431;52.198;9.902;2023-07-31T14:46:05;1.53;;;0.90;;
17524;SDS011;40431;52.198;9.902;2023-07-31T14:48:32;0.97;;;0.97;;
17524;SDS011;40431;52.198;9.902;2023-07-31T14:50:58;1.10;;;1.00;;